Cortland, OH (44410)

11:37 PM EDT on August 28, 2016 (GMT -0400)
Bazetta Township | | Change Station

Elev 960 ft 41.31 °N, 80.74 °W | Updated 28 seconds ago

Partly Cloudy
Partly Cloudy
70.3 °F
Feels Like 70.3 °F
N
0.0
Wind Variable Wind from North
Gusts 0.0 mph

Today
High -- | Low -- °F
--% Chance of Precip.
Yesterday
High -- | Low -- °F
Precip. -- in
Pressure 30.20 in
Visibility 10.0 miles
Clouds Few 22000 ft
Dew Point 66 °F
Humidity 87%
Rainfall 0.00 in
Snow Depth Not available.
6:45 AM 8:01 PM
Waning Crescent, 11% visible
METAR KYNG 290251Z 00000KT 10SM FEW220 22/21 A3022 RMK AO2 SLP226 60000 T02220206 51024
Pressure 30.20 in
Visibility 10.0 miles
Clouds Few 22000 ft
Dew Point 66 °F
Humidity 87%
Rainfall 0.00 in
Snow Depth Not available.
6:45 AM 8:01 PM
Waning Crescent, 11% visible
METAR KYNG 290251Z 00000KT 10SM FEW220 22/21 A3022 RMK AO2 SLP226 60000 T02220206 51024

10-Day Weather Forecast

Almanac

Astronomy

Aug. 28, 2016 Rise Set
Actual Time
Civil Twilight
Nautical Twilight
Astronomical Twilight
Moon
Length of Visible Light
Length of Day
Tomorrow will be .
, % of the Moon is Illuminated

Today's Extremes

State Highs State Lows

Community

WunderPhotos

Upload Photos

1,935,782 photos uploaded!

WunderBlog® & News

Nearby

Air Quality

  Air Quality AQ Index Pollutant
Not available.

Snow Depth

Station Depth Elevation

Earthquake Activity

City Distance Mag. Time & Date
Minimum magnitude displayed is 2.5.

Coastal Water Temperatures

Place Temperature

Stations

Nearby Weather Stations

Station Location Temp. Windchill Dew Point Humidity Wind Precip. Elev Updated Type
                   

Watches & Warnings

There are currently no watches in effect.